Time;durP1;ratioP1;P1;durP2;ratioP2;P2;SDS_P1;SDS_P2;PMS_P1;PMS_P2;Temp;Humidity;BMP_temperature;BMP_pressure;BME280_temperature;BME280_humidity;BME280_pressure;Samples;Min_cycle;Max_cycle;Signal;HPM_P1;HPM_P2
2022/08/07 00:02:28;;;;;;;3.05;2.72;;;;;;;15.76;77.16;101159.59;2787216;85;21052;-63
2022/08/07 00:06:29;;;;;;;4.67;2.40;;;;;;;15.72;77.08;101156.33;2797256;82;21054;-64
2022/08/07 00:10:53;;;;;;;3.15;1.65;;;;;;;15.71;77.33;101160.86;2808423;83;21038;-64
2022/08/07 00:14:54;;;;;;;4.40;2.10;;;;;;;15.67;77.22;101158.58;2739673;84;21031;-59
2022/08/07 00:19:08;;;;;;;4.60;2.33;;;;;;;15.63;77.14;101159.37;2853355;82;21036;-61
2022/08/07 00:23:10;;;;;;;3.65;2.40;;;;;;;15.54;77.08;101157.02;2847051;83;21003;-66
2022/08/07 00:27:13;;;;;;;6.12;2.67;;;;;;;15.46;77.43;101155.50;2859441;82;21015;-73
2022/08/07 00:31:14;;;;;;;4.22;2.47;;;;;;;15.42;77.91;101152.73;2861049;82;21046;-63
2022/08/07 00:35:21;;;;;;;3.92;2.47;;;;;;;15.41;77.59;101149.70;2861600;81;20992;-66
2022/08/07 00:39:23;;;;;;;3.20;2.47;;;;;;;15.41;77.47;101147.02;2869194;80;20972;-66
2022/08/07 00:43:38;;;;;;;4.08;2.05;;;;;;;15.42;77.15;101142.02;2890086;82;21015;-70
2022/08/07 00:47:40;;;;;;;2.22;2.02;;;;;;;15.39;77.39;101148.48;2849106;82;20991;-61
2022/08/07 00:51:42;;;;;;;2.25;2.05;;;;;;;15.35;77.75;101150.27;2813256;84;21007;-64
2022/08/07 00:55:43;;;;;;;3.27;2.70;;;;;;;15.34;77.90;101151.25;2772293;82;21122;-62
2022/08/07 01:00:28;;;;;;;2.12;1.87;;;;;;;15.32;77.26;101155.86;2830824;82;21023;-62
2022/08/07 01:04:29;;;;;;;3.10;2.15;;;;;;;15.24;77.05;101159.25;2831840;81;21000;-61
2022/08/07 01:08:31;;;;;;;3.55;1.98;;;;;;;15.13;77.83;101157.00;2808418;81;21035;-63
2022/08/07 01:12:43;;;;;;;3.83;2.65;;;;;;;15.07;78.25;101160.71;2796794;81;21074;-70
2022/08/07 01:16:45;;;;;;;2.92;2.65;;;;;;;14.99;77.70;101162.72;2791934;84;21031;-71
2022/08/07 01:20:52;;;;;;;2.80;2.40;;;;;;;14.87;77.75;101157.94;2767277;85;20984;-60
2022/08/07 01:24:55;;;;;;;5.60;2.70;;;;;;;14.80;78.18;101163.47;2795832;85;20971;-70
2022/08/07 01:29:07;;;;;;;7.15;3.45;;;;;;;14.68;78.58;101166.69;2785767;84;21019;-66
2022/08/07 01:33:08;;;;;;;5.03;3.33;;;;;;;14.59;78.47;101172.33;2785683;85;21063;-66
2022/08/07 01:37:25;;;;;;;4.40;2.37;;;;;;;14.55;78.94;101171.73;2790470;84;21020;-66
2022/08/07 01:41:27;;;;;;;5.87;2.98;;;;;;;14.51;78.45;101168.96;2750358;85;21049;-71
2022/08/07 01:45:28;;;;;;;3.40;2.33;;;;;;;14.54;78.80;101172.71;2791310;83;21567;-62
2022/08/07 01:49:52;;;;;;;5.05;3.33;;;;;;;14.51;78.66;101182.83;2767997;85;21035;-65
2022/08/07 01:53:57;;;;;;;3.65;2.70;;;;;;;14.38;78.40;101183.88;2796801;84;20963;-65
2022/08/07 01:58:00;;;;;;;7.73;2.57;;;;;;;14.33;78.83;101179.87;2797003;84;21007;-60
2022/08/07 02:02:20;;;;;;;5.67;3.12;;;;;;;14.32;79.41;101180.86;2772652;83;20991;-60
2022/08/07 02:06:25;;;;;;;3.40;2.52;;;;;;;14.30;79.52;101175.63;2807258;82;20980;-70
2022/08/07 02:10:28;;;;;;;17.12;2.95;;;;;;;14.31;79.82;101180.00;2844058;82;21016;-62
2022/08/07 02:14:30;;;;;;;4.67;2.65;;;;;;;14.34;79.89;101179.73;2844419;83;21001;-65
2022/08/07 02:18:36;;;;;;;3.27;2.98;;;;;;;14.37;79.97;101178.64;2831988;82;21000;-66
2022/08/07 02:22:40;;;;;;;4.45;2.55;;;;;;;14.39;79.89;101178.02;2845917;83;21032;-70
2022/08/07 02:26:42;;;;;;;5.75;2.62;;;;;;;14.40;79.89;101178.38;2834907;83;21051;-60
2022/08/07 02:30:44;;;;;;;3.45;2.33;;;;;;;14.37;80.16;101180.84;2833762;82;21001;-61
2022/08/07 02:34:48;;;;;;;2.67;1.87;;;;;;;14.37;80.27;101179.50;2776965;85;20987;-68
2022/08/07 02:38:52;;;;;;;4.12;2.85;;;;;;;14.36;80.46;101176.47;2844811;83;21028;-65
2022/08/07 02:43:21;;;;;;;4.12;1.98;;;;;;;14.36;80.69;101179.14;2844709;82;21228;-61
2022/08/07 02:47:22;;;;;;;6.58;2.05;;;;;;;14.34;80.82;101173.55;2844659;83;21007;-63
2022/08/07 02:51:26;;;;;;;11.20;2.50;;;;;;;14.32;81.15;101178.19;2844738;82;21004;-67
2022/08/07 02:55:31;;;;;;;2.80;2.55;;;;;;;14.32;81.43;101180.36;2821606;82;20985;-61
2022/08/07 02:59:33;;;;;;;7.72;2.58;;;;;;;14.35;81.33;101180.59;2816457;82;21003;-65
2022/08/07 03:03:36;;;;;;;3.87;2.22;;;;;;;14.36;81.47;101180.48;2801506;83;21142;-62
2022/08/07 03:07:55;;;;;;;4.85;2.00;;;;;;;14.36;81.83;101180.48;2822473;82;21042;-72
2022/08/07 03:11:57;;;;;;;2.95;2.52;;;;;;;14.35;82.01;101183.27;2796681;85;21042;-64
2022/08/07 03:16:00;;;;;;;4.40;2.87;;;;;;;14.37;82.39;101190.20;2791889;85;21015;-62
2022/08/07 03:20:03;;;;;;;8.30;3.42;;;;;;;14.41;82.63;101178.26;2745454;85;21030;-61
2022/08/07 03:24:37;;;;;;;6.25;3.00;;;;;;;14.47;82.47;101180.05;2787264;85;20980;-65
2022/08/07 03:28:41;;;;;;;2.47;2.27;;;;;;;14.46;82.18;101179.70;2777102;84;21012;-60
2022/08/07 03:32:48;;;;;;;3.42;2.95;;;;;;;14.47;82.18;101178.71;2770984;85;21024;-61
2022/08/07 03:37:08;;;;;;;7.65;4.00;;;;;;;14.45;82.07;101180.20;2787086;85;20980;-62
2022/08/07 03:41:11;;;;;;;2.42;2.22;;;;;;;14.41;82.18;101182.75;2792768;84;21028;-66
2022/08/07 03:45:15;;;;;;;3.50;2.62;;;;;;;14.38;82.26;101186.55;2780614;83;21227;-62
2022/08/07 03:49:17;;;;;;;3.58;2.40;;;;;;;14.38;82.32;101190.56;2675467;88;21004;-61
2022/08/07 05:12:13;;;;;;;6.35;2.37;;;;;;;22.48;60.51;101210.12;2909742;78;74517;-89
2022/08/07 05:20:33;;;;;;;6.12;1.75;;;;;;;23.00;57.14;101215.75;2864907;78;72582;-93
2022/08/07 06:46:08;;;;;;;3.80;1.45;;;;;;;24.19;53.76;101221.55;2864007;79;71802;-71
2022/08/07 06:50:17;;;;;;;5.42;1.95;;;;;;;23.84;53.15;101225.95;2829162;80;20980;-67
2022/08/07 06:54:19;;;;;;;2.05;1.45;;;;;;;23.76;53.00;101229.09;2798746;85;21016;-60
2022/08/07 06:58:23;;;;;;;1.77;0.95;;;;;;;24.12;53.17;101229.31;2874685;80;20980;-59
2022/08/07 07:02:50;;;;;;;1.77;0.80;;;;;;;24.45;52.48;101218.75;2882628;82;21027;-64
2022/08/07 07:06:52;;;;;;;1.87;1.65;;;;;;;24.68;49.91;101226.70;2877085;80;21041;-59
2022/08/07 07:11:19;;;;;;;13.03;2.58;;;;;;;24.39;52.46;101220.41;2877285;80;21031;-65
2022/08/07 07:15:28;;;;;;;2.52;1.40;;;;;;;24.40;51.29;101222.59;2889259;80;20968;-62
2022/08/07 07:24:16;;;;;;;;;;;;;;;24.92;49.99;101212.89;2892384;80;21070;-61
2022/08/07 07:45:21;;;;;;;1.72;1.02;;;;;;;25.21;48.77;101202.29;2819005;80;74217;-94
2022/08/07 07:49:26;;;;;;;3.30;0.80;;;;;;;25.21;48.36;101196.84;2786527;82;21007;-91
2022/08/07 07:53:29;;;;;;;6.30;0.68;;;;;;;25.33;48.53;101191.66;2796905;80;21105;-93
2022/08/07 07:57:33;;;;;;;8.45;4.15;;;;;;;25.19;48.74;101189.91;2808489;84;21009;-95
2022/08/07 08:33:04;;;;;;;3.22;1.22;;;;;;;24.77;46.66;101187.98;2852011;83;21170;-88
2022/08/07 08:37:12;;;;;;;0.68;0.53;;;;;;;24.59;47.31;101192.54;2802646;83;21028;-88
2022/08/07 08:41:48;;;;;;;9.08;1.05;;;;;;;24.55;47.07;101181.70;2858515;82;21095;-88
2022/08/07 08:46:05;;;;;;;1.47;0.70;;;;;;;24.71;47.49;101179.73;2894750;80;21028;-88
2022/08/07 08:50:33;;;;;;;2.50;0.73;;;;;;;24.84;47.68;101179.87;2825298;82;21110;-88
2022/08/07 08:54:43;;;;;;;2.90;0.80;;;;;;;24.79;46.90;101181.82;2831214;83;20981;-89
2022/08/07 08:59:23;;;;;;;3.08;1.12;;;;;;;24.69;47.24;101182.67;2823309;83;21032;-89
2022/08/07 09:03:42;;;;;;;1.40;1.27;;;;;;;24.45;47.57;101186.13;2813164;82;21115;-86
2022/08/07 09:07:54;;;;;;;2.45;1.12;;;;;;;24.18;48.22;101186.44;2826004;83;21096;-89
2022/08/07 09:12:16;;;;;;;1.42;0.70;;;;;;;23.85;48.23;101188.25;2787800;84;21108;-89
2022/08/07 09:16:44;;;;;;;2.67;0.50;;;;;;;23.71;47.15;101195.41;2787579;84;21025;-89
2022/08/07 09:21:23;;;;;;;0.95;0.60;;;;;;;23.71;46.93;101189.45;2782464;84;21029;-90
2022/08/07 09:25:29;;;;;;;1.80;1.15;;;;;;;23.51;49.30;101187.87;2774988;84;21064;-89
2022/08/07 09:29:51;;;;;;;0.98;0.45;;;;;;;23.32;47.11;101180.64;2816175;82;21146;-89
2022/08/07 09:34:24;;;;;;;2.05;0.45;;;;;;;23.41;46.62;101171.88;2776154;84;21059;-87
2022/08/07 09:38:46;;;;;;;1.67;0.68;;;;;;;23.71;44.85;101165.00;2814653;83;21012;-88
2022/08/07 09:42:56;;;;;;;1.22;0.60;;;;;;;23.89;45.67;101155.08;2780806;83;21036;-88
2022/08/07 09:47:23;;;;;;;0.68;0.30;;;;;;;24.12;47.75;101151.86;2834098;81;21031;-87
2022/08/07 09:51:40;;;;;;;0.50;0.42;;;;;;;24.30;44.93;101150.88;2911761;80;21063;-89
2022/08/07 09:56:07;;;;;;;1.67;0.70;;;;;;;24.46;46.23;101143.48;2865137;81;21016;-90
2022/08/07 10:00:13;;;;;;;0.98;0.60;;;;;;;24.51;44.11;101135.56;2837091;82;21062;-89
2022/08/07 10:04:49;;;;;;;1.47;1.15;;;;;;;24.72;45.46;101137.89;2820886;83;21050;-89
2022/08/07 10:08:56;;;;;;;1.55;0.68;;;;;;;24.60;43.95;101130.30;2840065;82;21051;-91
2022/08/07 10:13:18;;;;;;;3.20;0.82;;;;;;;24.25;45.10;101137.04;2863663;82;21099;-90
2022/08/07 10:17:50;;;;;;;1.67;0.40;;;;;;;24.17;43.72;101131.72;2851046;81;21042;-91
2022/08/07 10:22:38;;;;;;;1.98;0.72;;;;;;;23.96;43.59;101127.45;2822644;82;21057;-91
2022/08/07 10:27:02;;;;;;;2.05;0.75;;;;;;;23.94;44.99;101118.66;2918314;79;21039;-88
2022/08/07 10:31:43;;;;;;;1.00;0.80;;;;;;;24.06;44.62;101109.48;2757178;83;21047;-88
2022/08/07 10:36:13;;;;;;;1.47;1.05;;;;;;;24.26;44.05;101107.45;2788033;84;21049;-88
2022/08/07 10:40:34;;;;;;;1.10;0.65;;;;;;;24.34;45.24;101108.66;2780696;84;21142;-89
2022/08/07 10:44:44;;;;;;;2.70;0.85;;;;;;;24.37;44.66;101106.94;2784877;84;21094;-89
2022/08/07 10:48:51;;;;;;;1.52;0.65;;;;;;;24.27;44.80;101096.91;2734620;85;21047;-89
2022/08/07 10:53:18;;;;;;;2.50;1.10;;;;;;;24.32;44.87;101098.50;2702970;86;21003;-87
2022/08/07 10:57:40;;;;;;;1.30;0.60;;;;;;;24.46;45.25;101091.81;2727310;85;21071;-87
2022/08/07 11:02:19;;;;;;;1.62;0.82;;;;;;;24.50;43.79;101089.87;2718446;85;21089;-88
2022/08/07 11:06:26;;;;;;;1.00;0.62;;;;;;;24.39;45.85;101086.33;2717391;86;21035;-88
2022/08/07 11:10:54;;;;;;;2.47;0.50;;;;;;;24.32;44.62;101075.40;2794056;83;21521;-88
2022/08/07 11:15:03;;;;;;;1.52;0.57;;;;;;;24.31;44.43;101073.72;2796588;83;21067;-88
2022/08/07 11:19:25;;;;;;;1.37;1.12;;;;;;;24.21;45.37;101062.38;2797278;83;21539;-88
2022/08/07 11:23:44;;;;;;;0.88;0.50;;;;;;;24.08;44.71;101053.06;2766102;84;21090;-89
2022/08/07 11:28:16;;;;;;;1.17;0.88;;;;;;;24.21;44.45;101055.04;2787562;82;20999;-90
2022/08/07 11:32:31;;;;;;;1.40;0.57;;;;;;;24.40;45.24;101063.53;2755930;84;21024;-88
2022/08/07 11:36:55;;;;;;;1.02;0.65;;;;;;;24.47;45.97;101055.42;2796103;83;21151;-87
2022/08/07 11:41:13;;;;;;;1.02;0.45;;;;;;;24.56;44.44;101047.95;2805337;82;21054;-89
2022/08/07 11:45:26;;;;;;;0.75;0.50;;;;;;;24.65;44.92;101047.59;2818979;83;21443;-88
2022/08/07 11:49:48;;;;;;;2.10;0.62;;;;;;;24.63;43.76;101041.52;2833518;81;21094;-89
2022/08/07 11:54:19;;;;;;;1.20;0.62;;;;;;;24.70;45.66;101040.70;2763665;85;21039;-89
2022/08/07 11:58:41;;;;;;;1.37;0.95;;;;;;;24.82;43.69;101036.41;2826236;81;21056;-88
2022/08/07 12:03:37;;;;;;;1.00;0.70;;;;;;;25.02;45.62;101032.92;2829458;82;21101;-92
2022/08/07 12:08:20;;;;;;;2.17;0.90;;;;;;;25.24;43.93;101028.16;2857777;82;21066;-94
2022/08/07 12:12:42;;;;;;;1.35;0.55;;;;;;;25.35;43.67;101030.29;2852873;82;21050;-87
2022/08/07 12:16:54;;;;;;;0.82;0.50;;;;;;;25.22;43.24;101028.38;2836974;82;21031;-88
2022/08/07 12:21:16;;;;;;;2.92;1.42;;;;;;;25.00;46.45;101029.03;2839586;82;21051;-96
2022/08/07 12:25:54;;;;;;;1.17;0.40;;;;;;;24.77;43.97;101022.58;2793124;82;21622;-89
2022/08/07 12:30:01;;;;;;;1.02;0.72;;;;;;;24.84;46.75;101016.63;2733532;86;21118;-89
2022/08/07 12:34:06;;;;;;;0.80;0.80;;;;;;;25.16;43.67;101004.71;2723501;85;21038;-88
2022/08/07 12:38:10;;;;;;;1.15;0.70;;;;;;;25.43;43.64;101001.17;2699139;85;21106;-90
2022/08/07 12:42:15;;;;;;;0.85;0.40;;;;;;;25.61;42.98;101003.34;2688843;85;21070;-88
2022/08/07 12:46:25;;;;;;;;;;;;;;;25.59;43.24;100997.27;2737579;85;21051;-88
2022/08/07 12:50:53;;;;;;;0.53;0.40;;;;;;;25.46;43.00;100987.17;2703344;85;20161;-85
2022/08/07 12:55:08;;;;;;;0.70;0.50;;;;;;;25.28;42.78;100994.56;2707951;85;21066;-88
2022/08/07 12:59:15;;;;;;;1.07;0.98;;;;;;;25.31;42.95;100989.55;2653337;85;21082;-87
2022/08/07 13:03:28;;;;;;;0.72;0.40;;;;;;;25.39;43.32;100989.88;2716696;84;21112;-88
2022/08/07 13:08:03;;;;;;;1.30;0.40;;;;;;;25.44;43.66;100977.84;2742966;84;21123;-90
2022/08/07 13:12:13;;;;;;;2.20;0.70;;;;;;;25.30;44.02;100974.27;2734912;85;21048;-89
2022/08/07 13:16:46;;;;;;;0.65;0.42;;;;;;;25.57;44.02;100965.31;2711654;85;21118;-90
2022/08/07 13:21:01;;;;;;;2.83;0.90;;;;;;;25.72;43.96;100974.63;2766068;85;21391;-88
2022/08/07 13:25:14;;;;;;;0.78;0.30;;;;;;;25.90;43.23;100973.98;2671476;85;21051;-85
2022/08/07 13:29:22;;;;;;;9.18;1.02;;;;;;;25.93;43.17;100973.55;2709565;85;30677;-90
2022/08/07 13:33:40;;;;;;;0.72;0.57;;;;;;;25.88;43.56;100946.95;2737038;85;21084;-89
2022/08/07 13:37:56;;;;;;;4.25;1.40;;;;;;;25.72;43.49;100957.74;2839047;82;21102;-89
2022/08/07 13:42:00;;;;;;;0.85;0.80;;;;;;;25.60;43.46;100948.01;2869679;79;20973;-88
2022/08/07 13:46:03;;;;;;;2.12;0.42;;;;;;;25.65;42.82;100947.39;2837459;82;21043;-89
2022/08/07 13:50:08;;;;;;;1.75;0.33;;;;;;;25.56;41.93;100938.59;2823268;82;21562;-91
2022/08/07 13:54:13;;;;;;;3.87;1.40;;;;;;;25.50;42.35;100934.81;2835291;82;22637;-92
2022/08/07 14:02:38;;;;;;;1.67;0.90;;;;;;;25.74;41.56;100920.23;2790402;82;21016;-86
2022/08/07 14:06:47;;;;;;;1.70;0.82;;;;;;;25.80;43.11;100915.83;2806762;83;21031;-88
2022/08/07 14:10:51;;;;;;;1.40;1.07;;;;;;;25.73;43.01;100909.02;2833923;82;21019;-93
2022/08/07 14:15:01;;;;;;;2.42;0.75;;;;;;;25.69;42.82;100909.67;2837411;82;21094;-93
2022/08/07 14:19:08;;;;;;;1.47;0.80;;;;;;;25.50;42.36;100917.11;2822608;82;21023;-92
2022/08/07 14:23:20;;;;;;;1.30;0.82;;;;;;;25.50;41.96;100907.58;2841359;82;21023;-92
2022/08/07 14:27:30;;;;;;;1.17;1.07;;;;;;;25.55;42.43;100902.02;2840265;82;21015;-93
2022/08/07 14:31:32;;;;;;;0.70;0.70;;;;;;;25.62;41.55;100904.23;2840695;81;21090;-93
2022/08/07 14:35:37;;;;;;;0.80;0.70;;;;;;;25.73;41.43;100891.85;2857903;82;21067;-94
2022/08/07 14:39:42;;;;;;;4.90;1.27;;;;;;;25.77;41.87;100893.95;2876316;81;21150;-94
2022/08/07 14:43:48;;;;;;;3.67;0.65;;;;;;;25.85;42.28;100892.89;2839906;82;21027;-91
2022/08/07 14:47:51;;;;;;;0.60;0.53;;;;;;;25.99;42.15;100888.23;2819428;83;21035;-93
2022/08/07 14:51:56;;;;;;;1.45;0.72;;;;;;;25.94;42.34;100886.14;2869893;82;21019;-92
2022/08/07 14:56:05;;;;;;;1.20;0.80;;;;;;;25.88;41.83;100886.16;2875983;81;21034;-92
2022/08/07 15:00:09;;;;;;;1.00;0.60;;;;;;;25.71;41.05;100887.14;2846919;82;21055;-89
2022/08/07 15:04:13;;;;;;;1.42;0.80;;;;;;;25.61;41.53;100883.49;2847958;83;20981;-95
2022/08/07 15:08:22;;;;;;;1.70;0.70;;;;;;;25.55;43.09;100878.87;2849863;81;21036;-91
2022/08/07 15:12:31;;;;;;;1.67;0.33;;;;;;;25.65;44.21;100871.97;2826519;82;21084;-93
2022/08/07 15:16:46;;;;;;;8.53;0.95;;;;;;;25.72;42.45;100876.55;2820650;83;21067;-94
2022/08/07 15:20:50;;;;;;;4.22;0.62;;;;;;;25.73;42.61;100876.87;2849403;83;21058;-92
2022/08/07 15:24:53;;;;;;;0.98;0.80;;;;;;;25.76;41.80;100869.12;2797648;83;21582;-92
2022/08/07 15:28:57;;;;;;;2.00;0.75;;;;;;;25.88;42.14;100868.45;2791977;83;21033;-95
2022/08/07 15:33:01;;;;;;;0.90;0.60;;;;;;;25.74;42.25;100867.10;2791855;83;21039;-94
2022/08/07 15:37:05;;;;;;;1.72;0.85;;;;;;;25.57;41.82;100871.35;2854682;82;21055;-91
2022/08/07 15:41:16;;;;;;;3.87;1.10;;;;;;;25.60;43.57;100873.64;2788090;83;20987;-91
2022/08/07 15:45:28;;;;;;;0.88;0.62;;;;;;;25.62;41.64;100861.47;2809672;82;21076;-96
2022/08/07 15:49:34;;;;;;;1.22;0.95;;;;;;;25.72;42.52;100861.58;2806288;81;21031;-93
2022/08/07 15:54:31;;;;;;;1.27;0.53;;;;;;;25.69;42.73;100860.64;2786070;83;21048;-93
2022/08/07 15:59:02;;;;;;;1.62;0.75;;;;;;;25.58;41.61;100859.41;2839280;81;21011;-92
2022/08/07 16:03:12;;;;;;;1.10;0.90;;;;;;;25.55;43.05;100848.91;2856364;81;21027;-94
2022/08/07 16:07:15;;;;;;;0.78;0.57;;;;;;;25.39;43.00;100853.20;2808686;82;21063;-95
2022/08/07 16:11:33;;;;;;;0.98;0.55;;;;;;;25.35;42.69;100842.42;2791989;83;21050;-95
2022/08/07 16:15:48;;;;;;;2.70;0.82;;;;;;;25.33;42.95;100843.67;2805646;83;21094;-95
2022/08/07 16:20:07;;;;;;;2.00;0.93;;;;;;;25.30;42.73;100846.31;2815308;82;21057;-91
2022/08/07 16:24:29;;;;;;;2.33;0.68;;;;;;;25.38;42.42;100838.45;2793372;82;21052;-94
2022/08/07 16:29:16;;;;;;;1.05;0.80;;;;;;;25.38;42.44;100837.09;2798742;83;21013;-92
2022/08/07 16:33:20;;;;;;;1.72;1.07;;;;;;;25.23;44.12;100849.03;2786331;85;21024;-94
2022/08/07 16:37:47;;;;;;;0.82;0.60;;;;;;;25.11;44.26;100838.44;2775626;85;21065;-93
2022/08/07 16:42:28;;;;;;;1.10;0.70;;;;;;;24.99;43.84;100840.95;2820266;83;21046;-93
2022/08/07 16:47:07;;;;;;;0.72;0.60;;;;;;;24.86;42.71;100843.14;2792128;84;21030;-90
2022/08/07 16:51:52;;;;;;;1.12;0.62;;;;;;;24.70;43.87;100847.58;2744493;85;21661;-91
2022/08/07 16:56:14;;;;;;;1.45;0.80;;;;;;;24.58;44.57;100841.91;2817649;84;21026;-90
2022/08/07 17:00:18;;;;;;;0.80;0.33;;;;;;;24.44;44.78;100832.88;2813455;82;21043;-94
2022/08/07 17:04:32;;;;;;;1.25;0.60;;;;;;;24.29;43.98;100833.87;2802886;84;20969;-94
2022/08/07 17:08:38;;;;;;;1.12;0.98;;;;;;;24.09;46.84;100841.97;2793480;84;21012;-91
2022/08/07 17:13:21;;;;;;;2.27;0.82;;;;;;;23.94;45.94;100832.54;2797121;84;21053;-93
2022/08/07 17:17:31;;;;;;;2.72;1.35;;;;;;;23.86;45.44;100834.08;2805766;83;21044;-87
2022/08/07 17:21:51;;;;;;;4.65;0.75;;;;;;;23.74;46.75;100837.34;2794914;83;21060;-91
2022/08/07 17:26:18;;;;;;;1.10;0.50;;;;;;;23.63;46.68;100838.75;2806036;84;21028;-92
2022/08/07 17:30:20;;;;;;;1.25;0.60;;;;;;;23.54;45.64;100844.84;2789096;84;21107;-91
2022/08/07 17:34:41;;;;;;;1.25;0.70;;;;;;;23.45;46.95;100841.98;2746592;84;21020;-93
2022/08/07 17:39:03;;;;;;;2.02;1.10;;;;;;;23.41;47.58;100845.28;2770462;83;21087;-93
2022/08/07 17:43:11;;;;;;;0.88;0.37;;;;;;;23.32;48.62;100845.44;2790761;83;21040;-94
2022/08/07 17:47:36;;;;;;;1.52;0.95;;;;;;;23.20;48.42;100839.67;2793181;84;21039;-92
2022/08/07 17:51:45;;;;;;;1.95;0.93;;;;;;;23.14;48.52;100849.94;2780043;83;21509;-95
2022/08/07 17:56:04;;;;;;;1.20;0.78;;;;;;;23.08;48.91;100849.38;2819964;82;21006;-91
2022/08/07 18:00:15;;;;;;;1.22;0.45;;;;;;;22.97;49.77;100846.67;2801528;83;21650;-87
2022/08/07 18:13:47;;;;;;;0.95;0.95;;;;;;;22.56;51.08;100859.50;2813654;83;21138;-60
2022/08/07 18:18:06;;;;;;;2.62;1.00;;;;;;;22.39;51.33;100854.27;2859868;80;72341;-90
2022/08/07 19:07:01;;;;;;;2.27;0.98;;;;;;;20.97;54.47;100888.67;2784410;82;74085;-61
2022/08/07 19:11:16;;;;;;;2.72;1.02;;;;;;;20.88;53.88;100892.95;2787197;83;20985;-61
2022/08/07 19:15:45;;;;;;;1.77;0.90;;;;;;;20.84;53.69;100900.61;2785524;83;21043;-63
2022/08/07 19:20:23;;;;;;;2.15;1.65;;;;;;;20.74;54.25;100898.59;2774489;84;21086;-63
2022/08/07 19:24:30;;;;;;;1.02;0.53;;;;;;;20.64;54.26;100899.67;2754806;86;21942;-63
2022/08/07 19:28:34;;;;;;;1.85;1.10;;;;;;;20.53;54.52;100904.12;2894448;80;20967;-64
2022/08/07 19:32:41;;;;;;;4.55;1.15;;;;;;;20.47;54.63;100911.59;2912451;81;21011;-62
2022/08/07 19:36:48;;;;;;;2.98;1.12;;;;;;;20.39;54.66;100906.53;2914448;79;20942;-63
2022/08/07 19:40:54;;;;;;;3.37;0.98;;;;;;;20.34;55.13;100897.27;2884474;81;20994;-62
2022/08/07 19:44:59;;;;;;;2.47;1.60;;;;;;;20.25;55.46;100901.36;2914982;80;21009;-61
2022/08/07 19:49:05;;;;;;;;;;;;;;;20.17;55.48;100908.16;2917693;80;20927;-61
2022/08/07 19:53:12;;;;;;;2.08;0.90;;;;;;;20.12;56.36;100914.07;2928933;80;20108;-63
2022/08/07 19:57:18;;;;;;;3.00;0.55;;;;;;;20.09;56.72;100910.38;2915081;81;21045;-63
2022/08/07 20:01:21;;;;;;;1.05;0.93;;;;;;;20.02;57.25;100914.77;2909982;81;20978;-63
2022/08/07 20:05:32;;;;;;;2.25;1.47;;;;;;;19.92;57.81;100908.73;2911378;80;20952;-63
2022/08/07 20:09:47;;;;;;;1.67;1.40;;;;;;;19.81;58.06;100912.60;2868500;82;20997;-63
2022/08/07 20:13:55;;;;;;;3.83;2.35;;;;;;;19.69;58.27;100914.81;2929687;81;21000;-63
2022/08/07 20:18:15;;;;;;;3.92;1.37;;;;;;;19.60;59.01;100925.27;2904208;81;20990;-63
2022/08/07 20:22:23;;;;;;;8.08;3.40;;;;;;;19.47;60.16;100927.99;2883771;81;21055;-62
2022/08/07 20:26:32;;;;;;;29.57;11.10;;;;;;;19.14;62.70;100925.27;2887976;81;21047;-62
2022/08/07 20:30:43;;;;;;;20.32;11.60;;;;;;;18.97;62.92;100928.42;2906405;81;20983;-62
2022/08/07 20:34:46;;;;;;;20.95;11.40;;;;;;;18.80;65.37;100927.52;2900165;81;21031;-63
2022/08/07 20:38:53;;;;;;;19.70;10.88;;;;;;;18.61;64.83;100929.48;2892476;80;20968;-61
2022/08/07 20:42:56;;;;;;;22.70;11.73;;;;;;;18.54;65.30;100925.77;2915594;79;21027;-61
2022/08/07 20:47:02;;;;;;;23.50;12.10;;;;;;;18.49;65.29;100928.11;2885743;81;20979;-62
2022/08/07 20:51:06;;;;;;;32.13;14.05;;;;;;;18.45;65.54;100929.42;2848682;81;21083;-62
2022/08/07 20:55:21;;;;;;;38.55;12.30;;;;;;;18.39;66.18;100928.23;2880908;81;20996;-62
2022/08/07 20:59:27;;;;;;;24.00;11.07;;;;;;;18.29;66.42;100920.77;2899510;81;20960;-62
2022/08/07 21:03:50;;;;;;;21.17;8.70;;;;;;;18.17;67.21;100918.34;2914803;81;21110;-62
2022/08/07 21:07:56;;;;;;;12.50;6.60;;;;;;;18.07;67.43;100927.89;2896491;81;21022;-62
2022/08/07 21:12:12;;;;;;;11.90;7.85;;;;;;;17.96;68.43;100927.63;2921324;80;21015;-61
2022/08/07 21:16:14;;;;;;;10.58;5.60;;;;;;;17.90;68.95;100928.27;2932651;81;20997;-62
2022/08/07 21:20:19;;;;;;;8.88;5.85;;;;;;;17.86;69.08;100925.55;2929124;81;21006;-62
2022/08/07 21:24:44;;;;;;;7.33;5.97;;;;;;;17.81;69.83;100924.67;2882310;81;20978;-62
2022/08/07 21:28:51;;;;;;;7.33;4.70;;;;;;;17.76;70.12;100929.70;2930456;81;21036;-62
2022/08/07 21:33:11;;;;;;;5.58;3.95;;;;;;;17.69;70.19;100928.65;2921463;81;21072;-62
2022/08/07 21:37:31;;;;;;;4.75;3.30;;;;;;;17.64;70.20;100929.11;2916965;81;21037;-62
2022/08/07 21:41:50;;;;;;;7.55;3.72;;;;;;;17.58;70.43;100930.23;2866530;82;21044;-61
2022/08/07 21:45:56;;;;;;;5.33;2.95;;;;;;;17.54;70.41;100939.96;2905425;80;20997;-62
2022/08/07 21:50:19;;;;;;;6.08;3.27;;;;;;;17.46;70.72;100946.59;2915572;81;20989;-62
2022/08/07 21:54:36;;;;;;;4.70;3.00;;;;;;;17.38;71.72;100943.34;2891544;81;20953;-62
2022/08/07 21:59:15;;;;;;;3.00;2.60;;;;;;;17.28;72.08;100936.70;2904538;81;21088;-62
2022/08/07 22:03:42;;;;;;;7.15;2.87;;;;;;;17.22;72.83;100940.01;2926921;80;21009;-62
2022/08/07 22:07:57;;;;;;;3.87;2.33;;;;;;;17.11;73.84;100946.97;2931646;80;20999;-62
2022/08/07 22:12:16;;;;;;;4.67;2.70;;;;;;;17.08;73.92;100946.77;2855432;82;21017;-62
2022/08/07 22:16:28;;;;;;;3.00;2.58;;;;;;;17.04;73.73;100944.53;2855799;81;21026;-62
2022/08/07 22:20:47;;;;;;;4.37;2.70;;;;;;;17.01;73.71;100949.73;2903942;80;21008;-61
2022/08/07 22:25:04;;;;;;;5.40;2.80;;;;;;;16.95;74.49;100956.52;2885738;81;21024;-62
2022/08/07 22:29:11;;;;;;;3.62;2.15;;;;;;;16.90;74.46;100948.07;2955946;80;20994;-62
2022/08/07 22:33:13;;;;;;;5.25;2.90;;;;;;;16.87;74.60;100955.06;2915997;80;20950;-62
2022/08/07 22:38:08;;;;;;;3.60;2.20;;;;;;;16.85;74.61;100948.52;2889103;81;21100;-62
2022/08/07 22:42:23;;;;;;;3.25;2.27;;;;;;;16.77;74.58;100938.17;2906314;81;20975;-62
2022/08/07 22:46:45;;;;;;;3.58;2.35;;;;;;;16.65;76.13;100946.42;2906125;82;21018;-62
2022/08/07 22:51:08;;;;;;;3.47;2.20;;;;;;;16.47;76.35;100948.21;2906059;82;21021;-62
2022/08/07 22:55:40;;;;;;;2.40;2.05;;;;;;;16.40;76.36;100958.69;2905452;82;21052;-62
2022/08/07 23:00:15;;;;;;;4.58;2.60;;;;;;;16.35;76.79;100953.79;2905535;81;20970;-62
2022/08/07 23:05:01;;;;;;;4.85;2.60;;;;;;;16.31;77.06;100954.22;2906165;81;20997;-62
2022/08/07 23:09:11;;;;;;;3.72;2.42;;;;;;;16.26;76.78;100946.60;2906393;80;20998;-62
2022/08/07 23:13:59;;;;;;;4.22;2.30;;;;;;;16.21;76.85;100945.73;2912698;81;21026;-62
2022/08/07 23:18:41;;;;;;;2.80;2.15;;;;;;;16.16;76.99;100949.32;2906497;81;20988;-61
2022/08/07 23:23:18;;;;;;;4.22;2.92;;;;;;;16.13;77.19;100944.25;2907214;81;21029;-62
2022/08/07 23:28:05;;;;;;;4.10;2.98;;;;;;;16.12;76.98;100948.79;2813938;83;21036;-62
2022/08/07 23:32:36;;;;;;;6.60;2.95;;;;;;;16.07;77.09;100950.21;2796137;84;20999;-62
2022/08/07 23:37:28;;;;;;;7.25;3.50;;;;;;;16.02;77.12;100954.66;2719537;87;21063;-62
2022/08/07 23:41:54;;;;;;;4.22;2.67;;;;;;;15.95;77.16;100949.54;2813701;84;21014;-62
2022/08/07 23:46:24;;;;;;;6.37;3.80;;;;;;;15.86;77.75;100948.53;2708350;87;21040;-62
2022/08/07 23:50:44;;;;;;;4.55;2.92;;;;;;;15.74;78.09;100947.86;2738838;86;21107;-62
2022/08/07 23:55:26;;;;;;;4.58;3.30;;;;;;;15.69;78.94;100948.28;2743334;87;21043;-62
